x

West Dixon Entrance (46205) Wave Buoy

6:00pm - Fri 18th Aug 2017 All times are PDT. -7 hours from GMT.

  • Sig Wave height 6.9ft
  • Peak Period 8s
  • Wind
    11mph, 13mph gusts
  • Sea Temp 58°f
  • Air Temp 58°f
  • Sea Pressure 1018.7mb
  • West Dixon Entrance
  • West Dixon Entrance

More Historic Weather Station data

Upgrade to MSW Pro to gain access to the past 30 days of data for over 8000 Wavebouys and Weather Stations around the globe.

Join

Comparision Forecast

View Surf forecast
   
Fri 08/18 6:00pm 7ft 8s 11 13 mph 1018.7mb 58f 58f
5:00pm 7ft 8s 11 13 mph 1018.5mb 58f 58f
4:00pm 6ft 7s 9 13 mph 1018.3mb 58f 58f
3:00pm 7ft 8s 11 13 mph 1017.8mb 58f 57f
2:00pm 7ft 7s 13 13 mph 1017.2mb 58f 57f
1:00pm 7ft 7s 13 13 mph 1016.6mb 58f 57f
12:00pm 7ft 8s 11 13 mph 1015.9mb 58f 57f
11:00am 6.5ft 8s 11 13 mph 1015.4mb 57f 57f
10:00am 7ft 7s 11 13 mph 1014.8mb 57f 57f
9:00am 7ft 8s 13 16 mph 1014.6mb 57f 57f
8:00am 7ft 8s 13 16 mph 1014.3mb 57f 57f
7:00am 8ft 8s 13 18 mph 1013.9mb 57f 57f
6:00am 8.5ft 7s 13 18 mph 1013.5mb 57f 57f
5:00am 8ft 8s 16 18 mph 1013.3mb 57f 57f
4:00am 8.5ft 8s 16 18 mph 1013.2mb 57f 57f
3:00am 8.5ft 7s 18 22 mph 1012.7mb 57f 57f
2:00am 8.5ft 8s 20 25 mph 1012.4mb 57f 57f
1:00am 8.5ft 7s 20 27 mph 1012mb 57f 56f
12:00am 8.5ft 7s 22 27 mph 1011.6mb 57f 57f
Thu 08/17 11:00pm 8ft 7s 22 27 mph 1011.1mb 58f 57f
10:00pm 8.5ft 7s 25 29 mph 1010.5mb 58f 57f
9:00pm 8.5ft 7s 22 29 mph 1009.6mb 58f 57f
8:00pm  -   -  22
mph
- - 57f
7:00pm 8ft 6s 27 31 mph 1008.4mb 58f 58f
6:00pm 8ft 7s 25 31 mph 1008mb 58f 57f
5:00pm 7ft 7s 25 31 mph 1007.8mb 58f 58f
4:00pm 7.5ft 11s 25 29 mph 1007.7mb 58f 58f
3:00pm 7.5ft 11s 22 29 mph 1006.7mb 58f 58f
2:00pm 7ft 11s 16 20 mph 1006.2mb 58f 58f
1:00pm 7ft 12s 4 7 mph 1006mb 58f 57f
12:00pm 7ft 11s 7 11 mph 1006mb 58f 57f
11:00am 7ft 12s 16 20 mph 1006.9mb 58f 57f
10:00am 6.5ft 9s 18 20 mph 1008.1mb 58f 57f
9:00am 7ft 8s 20 22 mph 1009mb 58f 57f
8:00am 7ft 11s 20 22 mph 1010.5mb 58f 57f
7:00am 7ft 11s 20 25 mph 1011mb 58f 57f
6:00am 8ft 10s 20 25 mph 1012.3mb 58f 57f
5:00am 7.5ft 11s 20 22 mph 1013.3mb 58f 57f
4:00am 8ft 12s 20 25 mph 1014mb 58f 58f
3:00am 8ft 10s 18 20 mph 1014.7mb 58f 57f
2:00am 9ft 11s 13 18 mph 1015.9mb 58f 57f
1:00am 8.5ft 11s 18 22 mph 1016.1mb 58f 57f
12:00am 9ft 11s 11 13 mph 1016.9mb 58f 57f
Wed 08/16 11:00pm 8.5ft 11s 9 11 mph 1017.1mb 58f 57f
10:00pm 9ft 11s 13 16 mph 1017.2mb 58f 56f
9:00pm 8ft 9s 13 16 mph 1016.9mb 58f 57f
8:00pm 8.5ft 10s 11 13 mph 1016.9mb 58f 58f
7:00pm 9ft 10s 11 16 mph 1016.7mb 58f 58f
6:00pm 9.5ft 10s 13 18 mph 1016.7mb 58f 58f
5:00pm 11ft 11s 13 18 mph 1016.7mb 58f 58f
4:00pm 12ft 11s 16 20 mph 1016.5mb 58f 58f
3:00pm 11ft 10s 16 18 mph 1015.8mb 58f 58f
2:00pm 11.5ft 11s 16 20 mph 1015.1mb 58f 58f
1:00pm 11.5ft 12s 18 25 mph 1013.8mb 58f 58f
12:00pm 11.5ft 12s 20 25 mph 1012.6mb 58f 58f
11:00am 11ft 12s 20 25 mph 1011.4mb 58f 58f
10:00am 11ft 12s 18 22 mph 1010.4mb 58f 57f
9:00am 10.5ft 11s 18 25 mph 1009.6mb 57f 58f
8:00am 11ft 12s 22 27 mph 1008.8mb 57f 57f
7:00am 11ft 10s 25 29 mph 1008.3mb 57f 56f
6:00am 11.5ft 11s 25 29 mph 1008.1mb 58f 57f
5:00am 11.5ft 10s 22 29 mph 1007.7mb 58f 57f
4:00am 11ft 10s 22 29 mph 1007.8mb 58f 57f
3:00am 11ft 10s 20 27 mph 1007.8mb 58f 57f
2:00am 10.5ft 9s 20 27 mph 1007.7mb 58f 57f
1:00am 9ft 10s 20 25 mph 1007.5mb 58f 57f
12:00am 9ft 10s 20 25 mph 1007.1mb 58f 57f
Tue 08/15 11:00pm 8.5ft 8s 18 25 mph 1006.9mb 58f 57f
10:00pm 7.5ft 10s 20 27 mph 1006.4mb 58f 57f
9:00pm 7.5ft 10s 20 25 mph 1005.9mb 58f 58f
8:00pm 6.5ft 10s 20 25 mph 1005.6mb 58f 58f
7:00pm 6.5ft 7s 22 29 mph 1005.7mb 58f 58f
6:00pm 6.5ft 11s 22 27 mph 1005.7mb 58f 58f
5:00pm 7ft 10s 20 25 mph 1005.9mb 58f 58f
4:00pm 7ft 10s 20 25 mph 1006.3mb 58f 58f
3:00pm 7ft 8s 20 22 mph 1006.5mb 58f 58f
2:00pm 6.5ft 10s 18 22 mph 1007mb 58f 58f
1:00pm 6ft 10s 20 25 mph 1007mb 58f 58f
12:00pm 5.5ft 8s 20 25 mph 1007.5mb 58f 58f
11:00am 5ft 8s 20 22 mph 1008.1mb 58f 57f
10:00am 4.5ft 9s 16 22 mph 1008.8mb 58f 57f
9:00am 4.5ft 9s 13 16 mph 1009.4mb 58f 58f
8:00am 5ft 8s 13 13 mph 1009.7mb 58f 57f
7:00am 5ft 8s 11 13 mph 1010mb 58f 57f
6:00am 5.5ft 7s 13 13 mph 1010.2mb 58f 58f
5:00am 5.5ft 8s 13 16 mph 1010.5mb 58f 58f
4:00am 6ft 7s 16 20 mph 1010.9mb 58f 58f
3:00am 6ft 8s 18 22 mph 1011.7mb 58f 57f